Portada
METAR-TAF:

METAR-TAF

Aeroports :

Petropavl, Kazakhstan

latitud: 54-46-28N, longitud: 069-11-06E, altitud: 139 m

Observació

L'informe es va fer fa 20 minuts, a les 09:00 UTC
Vent 19 kt del Oest/Sud-Oest
Temperatura 16°C
Humitat 51%
Pressió 1005 hPa
Visibilitat 10 km o més
Cel ennuvolat a una alçada de 4600 ft, Cumulonimbus.

METAR: UACP 160900Z 25010MPS 9999 BKN046CB 16/06 Q1005 R23/0/0060 NOSIG RMK QFE741/0989

Hora: 15:20 (09:20 UTC)

Pronòstic

L'informe es va fer fa 1 hora i 18 minuts, a les 08:02 UTC
Pronòstic vàlid del 16 a les 09 UTC al 16 a les 18 UTC
Vent 12 kt del Sud-Oest
Visibilitat 10 km o més
Núvols disperses a una alçada de 3000 ft, Cumulonimbus.
Temporalment
l' 16 a les 09 UTC al 16 a les 12 UTC
Vent 14 kt del Oest/Sud-Oest
tempesta
Temporalment
l' 16 a les 12 UTC al 16 a les 18 UTC
Cel ennuvolat a una alçada de 2000 ft, Cumulonimbus.
tempesta, pluja

TAF: UACP 160802Z 1609/1618 22006MPS 9999 SCT030CB TEMPO 1609/1612 25007MPS TS TEMPO 1612/1618 -TSRA BKN020CB

Observacions i pronòstics meteorològics de més de 4000 aeroports (METAR i TAF).

Les estacions disponibles són els punts grocs i vermells al mapa.

Posi el ratolí al punt desitjat per veure el nom de l'estació.

Feu clic per veure les observacions i els pronòstics meteorològics.

Per canviar el mapa: feu clic els botons verds amb una creu de color negre per apropar; al botó verd amb un guió per allunyar la imatge; o en les fletxes verdes per a mapes adjacents.


METAR-TAF: